• pl
  • eng

Awiacja
Click on the bold red name to decode a message. 01:00 01.01.1970

METAR EPBY 190130Z 30008KT 9999 BKN010 OVC012 19/18 Q1010 =

METAR EPGD 190130Z 28007KT 6000 NSC 18/17 Q1010 =

METAR EPKK 190130Z 29010KT 9999 SCT005 OVC007 19/17 Q1010 =

METAR EPKT 190130Z 30007KT 3000 SHRA BR BKN003 BKN005CB 17/17 Q1011
REDZ =

METAR EPLB 190130Z 29008KT 5000 BR SCT005 20/20 Q1006 =

METAR EPLL 190130Z 30006KT 250V320 9999 BKN004CB 19/18 Q1010 =

METAR EPMO 190130Z 29007KT CAVOK 19/18 Q1007 =

METAR EPPO 190130Z 32007KT 9999 BKN008 18/18 Q1012 R10/190095 =

METAR EPRA 190130Z NIL=

METAR EPRZ 190130Z 30008KT 9999 OVC008 20/19 Q1007 =

METAR EPSC 190130Z 30007KT 2500 -RA BR SCT003 OVC004 18/18 Q1013 =

METAR EPSY 190130Z NIL=

METAR EPWA 190130Z 29008KT 9999 FEW006 SCT012 20/19 Q1007 NOSIG=

METAR EPWR 190130Z 30011KT 9999 FEW032 BKN039 18/17 Q1013 =

METAR EPZG 190130Z 27005KT CAVOK 19/16 Q1013 =
Awiacja.imgw.pl jest pogodowym serwisem informacyjnym
Instytutu Meteorologii i Gospodarki Wodnej Państwowego Instytutu Badawczego.
Copyright IMGW PIB 2009-2011© Wszelkie prawa zastrzeżone.